createdAt,value
2022-09-25T00:01:19.425Z,15.57
2022-09-25T00:03:47.574Z,16.55
2022-09-25T00:06:17.226Z,20.13
2022-09-25T00:08:47.179Z,18.25
2022-09-25T00:11:20.239Z,19.25
2022-09-25T00:13:49.055Z,17.80
2022-09-25T00:16:19.041Z,18.80
2022-09-25T00:19:04.399Z,19.88
2022-09-25T00:21:33.216Z,18.23
2022-09-25T00:24:05.111Z,22.17
2022-09-25T00:26:34.779Z,20.83
2022-09-25T00:29:03.256Z,19.20
2022-09-25T00:31:32.287Z,46.70
2022-09-25T00:34:01.996Z,43.40
2022-09-25T00:36:30.683Z,23.90
2022-09-25T00:38:58.354Z,37.28
2022-09-25T00:41:30.175Z,35.08
2022-09-25T00:43:59.699Z,31.30
2022-09-25T00:46:31.574Z,41.17
2022-09-25T00:49:03.633Z,34.03
2022-09-25T00:51:38.940Z,26.85
2022-09-25T00:54:09.755Z,24.10
2022-09-25T00:56:43.924Z,25.92
2022-09-25T00:59:28.132Z,29.60
2022-09-25T01:01:56.336Z,30.70
2022-09-25T01:04:24.543Z,39.35
2022-09-25T01:06:52.515Z,43.00
2022-09-25T01:09:20.642Z,27.13
2022-09-25T01:11:49.749Z,27.85
2022-09-25T01:14:17.653Z,31.17
2022-09-25T01:16:51.194Z,28.80
2022-09-25T01:22:01.802Z,29.13
2022-09-25T01:24:49.796Z,24.17
2022-09-25T01:27:37.597Z,24.45
2022-09-25T01:30:10.494Z,25.52
2022-09-25T01:32:52.603Z,22.15
2022-09-25T01:35:30.165Z,21.42
2022-09-25T01:38:02.679Z,23.25
2022-09-25T01:40:36.407Z,25.77
2022-09-25T01:43:12.182Z,23.45
2022-09-25T01:45:46.265Z,26.27
2022-09-25T01:48:17.595Z,24.33
2022-09-25T01:50:49.601Z,23.20
2022-09-25T01:53:22.612Z,23.33
2022-09-25T01:55:57.878Z,22.27
2022-09-25T01:58:29.904Z,27.70
2022-09-25T02:01:02.282Z,27.48
2022-09-25T02:03:37.919Z,25.83
2022-09-25T02:06:10.041Z,29.08
2022-09-25T02:08:44.261Z,25.70
2022-09-25T02:11:14.213Z,27.58
2022-09-25T02:13:49.213Z,35.25
2022-09-25T02:16:22.951Z,31.50
2022-09-25T02:19:08.823Z,35.65
2022-09-25T02:21:46.576Z,33.13
2022-09-25T02:24:21.940Z,36.72
2022-09-25T02:26:50.966Z,44.42
2022-09-25T02:29:20.829Z,37.90
2022-09-25T02:31:54.559Z,31.65
2022-09-25T02:34:22.841Z,34.05
2022-09-25T02:36:50.946Z,32.90
2022-09-25T02:39:23.026Z,38.75
2022-09-25T02:42:10.448Z,35.42
2022-09-25T02:44:56.020Z,38.63
2022-09-25T02:47:35.619Z,30.20
2022-09-25T02:50:14.067Z,39.78
2022-09-25T02:52:47.484Z,44.97
2022-09-25T02:55:23.135Z,33.42
2022-09-25T02:57:57.129Z,44.85
2022-09-25T03:00:25.165Z,37.72
2022-09-25T03:02:59.429Z,36.25
2022-09-25T03:05:27.633Z,40.60
2022-09-25T03:08:13.273Z,35.53
2022-09-25T03:10:46.495Z,48.75
2022-09-25T03:13:19.005Z,38.67
2022-09-25T03:15:51.987Z,38.92
2022-09-25T03:18:21.969Z,48.63
2022-09-25T03:20:52.660Z,52.30
2022-09-25T03:23:20.771Z,48.90
2022-09-25T03:25:50.407Z,48.20
2022-09-25T03:28:19.289Z,50.63
2022-09-25T03:30:58.421Z,53.92
2022-09-25T03:33:29.988Z,56.55
2022-09-25T03:36:03.478Z,47.72
2022-09-25T03:38:31.573Z,50.08
2022-09-25T03:40:59.826Z,55.50
2022-09-25T03:43:28.379Z,50.35
2022-09-25T03:45:56.568Z,57.10
2022-09-25T03:48:24.567Z,55.90
2022-09-25T03:50:53.755Z,61.38
2022-09-25T03:53:21.472Z,49.95
2022-09-25T03:55:49.663Z,53.00
2022-09-25T03:58:18.280Z,57.83
2022-09-25T04:00:47.724Z,55.35
2022-09-25T04:03:16.608Z,53.85
2022-09-25T04:05:46.208Z,48.13
2022-09-25T04:08:16.253Z,46.20
2022-09-25T04:10:43.968Z,52.03
2022-09-25T04:13:12.931Z,55.53
2022-09-25T04:15:42.732Z,48.60
2022-09-25T04:18:10.610Z,47.95
2022-09-25T04:20:38.532Z,51.08
2022-09-25T04:23:06.320Z,49.08
2022-09-25T04:25:36.050Z,49.95
2022-09-25T04:28:04.663Z,51.92
2022-09-25T04:30:32.712Z,46.40
2022-09-25T04:33:19.250Z,46.17
2022-09-25T04:35:47.246Z,46.50
2022-09-25T04:38:15.165Z,48.35
2022-09-25T04:40:46.063Z,46.58
2022-09-25T04:43:14.342Z,51.95
2022-09-25T04:45:42.323Z,46.97
2022-09-25T04:48:11.529Z,52.88
2022-09-25T04:50:39.465Z,54.13
2022-09-25T04:53:07.278Z,47.88
2022-09-25T04:55:34.990Z,48.45
2022-09-25T04:58:03.993Z,48.22
2022-09-25T05:00:33.588Z,47.30
2022-09-25T05:03:04.518Z,47.63
2022-09-25T05:05:32.990Z,46.72
2022-09-25T05:08:02.429Z,45.40
2022-09-25T05:10:31.741Z,46.75
2022-09-25T05:13:00.830Z,44.13
2022-09-25T05:15:32.040Z,46.00
2022-09-25T05:18:04.358Z,45.22
2022-09-25T05:20:32.663Z,50.13
2022-09-25T05:23:01.430Z,48.08
2022-09-25T05:25:29.148Z,41.15
2022-09-25T05:27:59.372Z,46.42
2022-09-25T05:30:28.846Z,41.47
2022-09-25T05:32:59.422Z,31.83
2022-09-25T05:35:30.251Z,36.83
2022-09-25T05:37:58.693Z,36.42
2022-09-25T05:40:27.312Z,33.70
2022-09-25T05:42:56.081Z,28.55
2022-09-25T05:45:24.511Z,25.77
2022-09-25T05:48:03.031Z,26.52
2022-09-25T05:50:32.471Z,23.15
2022-09-25T05:53:01.585Z,25.42
2022-09-25T05:55:30.368Z,21.08
2022-09-25T05:58:01.533Z,26.13
2022-09-25T06:00:29.902Z,27.13
2022-09-25T06:02:57.631Z,28.30
2022-09-25T06:05:26.715Z,27.95
2022-09-25T06:07:55.470Z,35.42
2022-09-25T06:10:26.612Z,36.05
2022-09-25T06:12:58.876Z,36.85
2022-09-25T06:15:27.991Z,38.63
2022-09-25T06:17:56.095Z,41.33
2022-09-25T06:20:24.701Z,54.33
2022-09-25T06:22:54.767Z,41.00
2022-09-25T06:25:24.076Z,46.88
2022-09-25T06:27:53.465Z,45.30
2022-09-25T06:30:21.951Z,40.90
2022-09-25T06:32:51.136Z,37.35
2022-09-25T06:35:18.909Z,33.58
2022-09-25T06:37:46.563Z,36.85
2022-09-25T06:40:16.056Z,37.03
2022-09-25T06:42:46.177Z,35.42
2022-09-25T06:45:13.965Z,35.35
2022-09-25T06:47:41.661Z,35.05
2022-09-25T06:50:09.834Z,32.10
2022-09-25T06:52:43.129Z,30.17
2022-09-25T06:55:11.516Z,34.20
2022-09-25T06:57:40.790Z,35.17
2022-09-25T07:00:10.000Z,30.25
2022-09-25T07:02:55.376Z,31.23
2022-09-25T07:05:23.202Z,36.40
2022-09-25T07:07:50.831Z,35.92
2022-09-25T07:10:18.600Z,33.80
2022-09-25T07:12:47.942Z,33.47
2022-09-25T07:15:15.996Z,32.05
2022-09-25T07:17:43.978Z,36.03
2022-09-25T07:20:14.199Z,32.35
2022-09-25T07:22:42.702Z,28.80
2022-09-25T07:25:11.690Z,30.55
2022-09-25T07:27:39.802Z,36.50
2022-09-25T07:30:10.534Z,31.27
2022-09-25T07:32:38.185Z,33.35
2022-09-25T07:35:06.583Z,31.58
2022-09-25T07:37:34.417Z,34.05
2022-09-25T07:40:02.709Z,31.92
2022-09-25T07:42:32.044Z,36.35
2022-09-25T07:44:59.819Z,34.65
2022-09-25T07:47:28.775Z,36.50
2022-09-25T07:49:56.638Z,27.20
2022-09-25T07:52:24.696Z,32.20
2022-09-25T07:54:53.066Z,32.63
2022-09-25T07:57:21.374Z,34.70
2022-09-25T07:59:49.578Z,37.75
2022-09-25T08:02:17.533Z,33.38
2022-09-25T08:04:46.825Z,36.67
2022-09-25T08:07:16.668Z,37.10
2022-09-25T08:09:44.525Z,32.72
2022-09-25T08:12:13.872Z,31.75
2022-09-25T08:14:42.111Z,31.13
2022-09-25T08:17:09.962Z,31.08
2022-09-25T08:19:37.838Z,28.40
2022-09-25T08:22:07.046Z,28.75
2022-09-25T08:24:34.906Z,28.95
2022-09-25T08:27:02.986Z,32.90
2022-09-25T08:29:31.076Z,27.42
2022-09-25T08:31:58.844Z,28.33
2022-09-25T08:34:42.301Z,29.00
2022-09-25T08:37:12.057Z,31.25
2022-09-25T08:39:40.707Z,28.27
2022-09-25T08:42:18.245Z,28.08
2022-09-25T08:45:20.936Z,29.02
2022-09-25T08:48:10.194Z,28.98
2022-09-25T08:50:38.816Z,26.98
2022-09-25T08:53:15.148Z,25.65
2022-09-25T08:56:00.830Z,31.10
2022-09-25T08:58:31.690Z,28.60
2022-09-25T09:01:04.158Z,27.15
2022-09-25T09:03:34.040Z,27.58
2022-09-25T09:06:05.743Z,27.15
2022-09-25T09:08:39.699Z,28.45
2022-09-25T09:11:13.933Z,26.50
2022-09-25T09:13:47.586Z,29.63
2022-09-25T09:18:47.323Z,27.52
2022-09-25T09:21:22.574Z,27.20
2022-09-25T09:24:01.298Z,25.88
2022-09-25T09:26:38.784Z,23.40
2022-09-25T09:29:28.060Z,23.17
2022-09-25T09:32:04.511Z,23.45
2022-09-25T09:37:45.847Z,22.60
2022-09-25T09:40:25.358Z,25.92
2022-09-25T09:43:04.940Z,25.02
2022-09-25T09:45:44.291Z,21.48
2022-09-25T09:48:21.122Z,18.45
2022-09-25T09:50:53.541Z,31.58
2022-09-25T09:53:32.256Z,23.05
2022-09-25T09:56:09.019Z,83.03
2022-09-25T09:58:46.163Z,21.25
2022-09-25T10:01:37.073Z,20.13
2022-09-25T10:04:09.756Z,25.13
2022-09-25T10:06:40.211Z,24.67
2022-09-25T10:09:11.711Z,18.75
2022-09-25T10:11:43.101Z,21.92
2022-09-25T10:14:21.246Z,18.45
2022-09-25T10:16:52.466Z,17.88
2022-09-25T10:19:23.790Z,16.95
2022-09-25T10:21:56.652Z,18.80
2022-09-25T10:24:51.941Z,12.45
2022-09-25T10:27:33.710Z,24.13
2022-09-25T10:30:05.189Z,16.88
2022-09-25T10:32:36.487Z,15.82
2022-09-25T10:35:05.776Z,18.70
2022-09-25T10:37:37.520Z,17.35
2022-09-25T10:40:08.702Z,20.95
2022-09-25T10:42:41.836Z,19.23
2022-09-25T10:45:32.396Z,20.50
2022-09-25T10:48:18.844Z,19.80
2022-09-25T10:51:08.670Z,22.80
2022-09-25T10:53:38.901Z,25.80
2022-09-25T10:56:12.758Z,25.33
2022-09-25T10:58:46.577Z,28.10
2022-09-25T11:01:17.113Z,37.35
2022-09-25T11:03:56.779Z,28.17
2022-09-25T11:06:27.170Z,26.60
2022-09-25T11:09:15.133Z,30.58
2022-09-25T11:11:46.072Z,30.73
2022-09-25T11:14:31.762Z,28.38
2022-09-25T11:17:01.584Z,38.40
2022-09-25T11:19:31.955Z,26.77
2022-09-25T11:22:18.145Z,25.35
2022-09-25T11:25:00.163Z,21.52
2022-09-25T11:27:36.395Z,20.98
2022-09-25T11:30:10.131Z,23.77
2022-09-25T11:32:52.401Z,21.20
2022-09-25T11:35:35.007Z,20.80
2022-09-25T11:38:16.554Z,21.63
2022-09-25T11:41:12.963Z,17.67
2022-09-25T11:43:57.743Z,14.63
2022-09-25T11:46:35.448Z,14.85
2022-09-25T11:49:16.394Z,15.63
2022-09-25T11:52:29.416Z,15.32
2022-09-25T11:55:37.188Z,11.55
2022-09-25T11:58:21.194Z,12.13
2022-09-25T12:01:00.687Z,11.93
2022-09-25T12:03:38.068Z,9.52
2022-09-25T12:06:26.874Z,10.63
2022-09-25T12:09:07.965Z,12.05
2022-09-25T12:11:45.593Z,9.95
2022-09-25T12:14:21.859Z,7.65
2022-09-25T12:17:00.349Z,9.32
2022-09-25T12:19:38.188Z,5.68
2022-09-25T12:22:15.190Z,6.63
2022-09-25T12:24:56.677Z,9.80
2022-09-25T12:27:39.035Z,25.85
2022-09-25T12:30:17.291Z,10.05
2022-09-25T12:33:08.139Z,21.25
2022-09-25T12:35:45.959Z,9.52
2022-09-25T12:38:23.001Z,7.50
2022-09-25T12:40:55.430Z,9.98
2022-09-25T12:43:28.821Z,6.35
2022-09-25T12:46:01.276Z,5.47
2022-09-25T12:48:37.475Z,7.70
2022-09-25T12:51:18.389Z,6.80
2022-09-25T12:53:50.379Z,7.50
2022-09-25T12:56:21.940Z,5.05
2022-09-25T12:59:03.452Z,5.75
2022-09-25T13:01:38.456Z,5.70
2022-09-25T13:04:19.544Z,8.90
2022-09-25T13:06:53.091Z,4.78
2022-09-25T13:11:59.683Z,3.92
2022-09-25T13:14:35.618Z,5.22
2022-09-25T13:17:03.871Z,3.95
2022-09-25T13:19:35.285Z,6.32
2022-09-25T13:22:07.155Z,4.70
2022-09-25T13:24:43.984Z,5.45
2022-09-25T13:27:18.821Z,7.05
2022-09-25T13:29:57.450Z,4.45
2022-09-25T13:32:28.854Z,4.00
2022-09-25T13:35:00.428Z,7.40
2022-09-25T13:37:34.661Z,6.35
2022-09-25T13:40:33.638Z,8.93
2022-09-25T13:43:20.892Z,3.60
2022-09-25T13:45:50.366Z,5.80
2022-09-25T13:48:37.900Z,4.95
2022-09-25T13:51:38.206Z,6.22
2022-09-25T13:54:27.807Z,7.35
2022-09-25T13:56:55.628Z,6.15
2022-09-25T13:59:39.653Z,3.83
2022-09-25T14:02:47.798Z,4.75
2022-09-25T14:05:21.024Z,5.82
2022-09-25T14:07:54.796Z,72.95
2022-09-25T14:10:26.290Z,21.33
2022-09-25T14:12:54.453Z,8.13
2022-09-25T14:15:32.815Z,6.05
2022-09-25T14:18:04.220Z,6.65
2022-09-25T14:20:36.033Z,4.90
2022-09-25T14:23:07.622Z,7.43
2022-09-25T14:25:40.773Z,6.75
2022-09-25T14:28:20.564Z,5.45
2022-09-25T14:31:21.570Z,3.97
2022-09-25T14:34:07.946Z,5.35
2022-09-25T14:36:44.738Z,4.80
2022-09-25T14:39:37.693Z,8.60
2022-09-25T14:42:27.537Z,4.07
2022-09-25T14:45:22.779Z,8.25
2022-09-25T14:47:53.787Z,4.10
2022-09-25T14:50:25.348Z,3.13
2022-09-25T14:52:58.278Z,3.60
2022-09-25T14:55:30.459Z,3.95
2022-09-25T14:58:01.501Z,1.98
2022-09-25T15:00:32.350Z,4.28
2022-09-25T15:03:00.222Z,3.38
2022-09-25T15:05:34.170Z,3.90
2022-09-25T15:08:03.490Z,4.20
2022-09-25T15:10:34.120Z,5.90
2022-09-25T15:13:15.846Z,4.13
2022-09-25T15:16:06.373Z,4.78
2022-09-25T15:18:37.839Z,4.68
2022-09-25T15:21:11.595Z,4.20
2022-09-25T15:23:39.938Z,3.30
2022-09-25T15:26:07.744Z,3.28
2022-09-25T15:28:40.261Z,4.22
2022-09-25T15:31:09.062Z,4.07
2022-09-25T15:33:38.870Z,2.63
2022-09-25T15:36:17.126Z,120.05
2022-09-25T15:38:45.981Z,4.53
2022-09-25T15:41:16.490Z,5.32
2022-09-25T15:43:45.896Z,3.13
2022-09-25T15:46:38.228Z,2.17
2022-09-25T15:49:07.814Z,3.17
2022-09-25T15:51:38.384Z,3.35
2022-09-25T15:54:34.375Z,4.95
2022-09-25T15:57:06.213Z,8.13
2022-09-25T16:00:02.883Z,8.13
2022-09-25T16:02:53.456Z,3.88
2022-09-25T16:05:29.940Z,5.78
2022-09-25T16:08:17.396Z,4.75
2022-09-25T16:10:50.127Z,6.35
2022-09-25T16:13:22.412Z,5.63
2022-09-25T16:15:54.550Z,8.00
2022-09-25T16:18:48.266Z,6.85
2022-09-25T16:21:29.818Z,5.93
2022-09-25T16:24:03.772Z,4.70
2022-09-25T16:26:38.858Z,7.10
2022-09-25T16:29:22.344Z,6.30
2022-09-25T16:31:56.200Z,4.57
2022-09-25T16:34:29.778Z,5.93
2022-09-25T16:39:31.500Z,12.55
2022-09-25T16:42:00.393Z,9.88
2022-09-25T16:44:46.535Z,17.27
2022-09-25T16:47:19.973Z,8.13
2022-09-25T16:49:49.980Z,6.10
2022-09-25T16:52:22.429Z,6.13
2022-09-25T16:54:54.545Z,6.43
2022-09-25T16:57:25.864Z,5.25
2022-09-25T16:59:55.523Z,3.85
2022-09-25T17:02:33.835Z,6.78
2022-09-25T17:05:04.727Z,25.52
2022-09-25T17:07:33.240Z,8.20
2022-09-25T17:10:02.601Z,4.47
2022-09-25T17:12:32.615Z,11.80
2022-09-25T17:15:01.711Z,6.18
2022-09-25T17:17:32.736Z,6.55
2022-09-25T17:20:01.235Z,7.07
2022-09-25T17:22:31.321Z,5.88
2022-09-25T17:25:03.361Z,5.32
2022-09-25T17:27:31.430Z,4.93
2022-09-25T17:30:00.091Z,6.82
2022-09-25T17:32:29.654Z,7.57
2022-09-25T17:35:02.174Z,5.72
2022-09-25T17:37:30.230Z,7.95
2022-09-25T17:40:00.849Z,5.90
2022-09-25T17:42:31.033Z,6.97
2022-09-25T17:44:59.864Z,8.05
2022-09-25T17:47:28.382Z,9.18
2022-09-25T17:49:58.391Z,7.85
2022-09-25T17:52:28.137Z,8.00
2022-09-25T17:54:56.328Z,19.20
2022-09-25T17:57:27.999Z,10.75
2022-09-25T17:59:56.434Z,8.98
2022-09-25T18:02:29.170Z,10.93
2022-09-25T18:04:57.899Z,17.15
2022-09-25T18:07:33.337Z,16.40
2022-09-25T18:10:03.349Z,14.55
2022-09-25T18:12:31.956Z,15.80
2022-09-25T18:15:00.472Z,12.43
2022-09-25T18:17:29.074Z,48.78
2022-09-25T18:20:15.786Z,41.17
2022-09-25T18:22:45.985Z,18.55
2022-09-25T18:25:17.500Z,12.75
2022-09-25T18:27:45.477Z,8.05
2022-09-25T18:30:17.859Z,11.10
2022-09-25T18:32:46.469Z,10.98
2022-09-25T18:35:15.837Z,12.90
2022-09-25T18:37:46.685Z,8.60
2022-09-25T18:40:17.667Z,8.73
2022-09-25T18:42:46.186Z,10.00
2022-09-25T18:45:14.851Z,8.70
2022-09-25T18:47:44.123Z,8.32
2022-09-25T18:50:15.528Z,10.93
2022-09-25T18:52:47.677Z,13.48
2022-09-25T18:55:16.023Z,10.95
2022-09-25T18:57:44.198Z,15.55
2022-09-25T19:00:13.199Z,13.32
2022-09-25T19:02:42.502Z,10.18
2022-09-25T19:05:11.407Z,8.05
2022-09-25T19:07:39.622Z,9.65
2022-09-25T19:10:11.108Z,9.77
2022-09-25T19:12:38.816Z,10.15
2022-09-25T19:15:07.572Z,9.68
2022-09-25T19:17:37.240Z,10.15
2022-09-25T19:20:06.988Z,11.07
2022-09-25T19:22:37.218Z,8.93
2022-09-25T19:25:06.279Z,11.88
2022-09-25T19:27:35.630Z,9.00
2022-09-25T19:30:03.912Z,12.82
2022-09-25T19:32:31.777Z,11.82
2022-09-25T19:34:59.815Z,12.98
2022-09-25T19:37:29.967Z,10.43
2022-09-25T19:40:15.721Z,10.85
2022-09-25T19:42:47.210Z,12.75
2022-09-25T19:45:15.634Z,13.48
2022-09-25T19:47:43.848Z,24.15
2022-09-25T19:50:12.663Z,22.35
2022-09-25T19:52:40.508Z,20.05
2022-09-25T19:55:09.887Z,12.40
2022-09-25T19:57:39.600Z,13.60
2022-09-25T20:00:11.932Z,12.98
2022-09-25T20:02:45.949Z,12.60
2022-09-25T20:05:14.887Z,10.32
2022-09-25T20:07:42.780Z,9.95
2022-09-25T20:10:10.995Z,11.95
2022-09-25T20:12:38.767Z,8.82
2022-09-25T20:15:07.862Z,9.68
2022-09-25T20:17:37.060Z,12.50
2022-09-25T20:20:06.745Z,10.93
2022-09-25T20:22:34.588Z,10.65
2022-09-25T20:25:02.383Z,14.00
2022-09-25T20:27:30.399Z,10.10
2022-09-25T20:29:58.199Z,9.85
2022-09-25T20:32:25.870Z,13.48
2022-09-25T20:34:55.050Z,11.13
2022-09-25T20:37:22.730Z,15.05
2022-09-25T20:39:50.847Z,14.23
2022-09-25T20:42:18.951Z,11.85
2022-09-25T20:44:47.037Z,12.77
2022-09-25T20:47:15.304Z,13.93
2022-09-25T20:49:43.906Z,13.68
2022-09-25T20:52:13.970Z,12.60
2022-09-25T20:54:43.440Z,15.43
2022-09-25T20:57:11.875Z,18.08
2022-09-25T20:59:40.144Z,11.88
2022-09-25T21:02:10.001Z,11.02
2022-09-25T21:04:38.680Z,12.00
2022-09-25T21:07:06.989Z,17.90
2022-09-25T21:09:36.931Z,9.35
2022-09-25T21:12:05.862Z,11.50
2022-09-25T21:14:35.491Z,12.82
2022-09-25T21:17:03.854Z,11.52
2022-09-25T21:19:31.987Z,11.15
2022-09-25T21:21:59.695Z,12.20
2022-09-25T21:24:27.440Z,10.85
2022-09-25T21:26:56.677Z,13.57
2022-09-25T21:29:24.469Z,12.02
2022-09-25T21:31:52.213Z,12.35
2022-09-25T21:34:20.927Z,14.40
2022-09-25T21:36:49.151Z,18.55
2022-09-25T21:39:17.255Z,19.23
2022-09-25T21:41:44.930Z,17.35
2022-09-25T21:44:16.402Z,16.20
2022-09-25T21:46:44.745Z,15.88
2022-09-25T21:49:17.147Z,15.07
2022-09-25T21:51:46.572Z,17.98
2022-09-25T21:54:16.163Z,15.10
2022-09-25T21:56:44.482Z,12.80
2022-09-25T21:59:14.382Z,12.95
2022-09-25T22:01:44.882Z,14.40
2022-09-25T22:04:14.881Z,11.63
2022-09-25T22:06:45.246Z,20.23
2022-09-25T22:09:15.773Z,15.80
2022-09-25T22:11:43.769Z,17.33
2022-09-25T22:14:15.971Z,14.35
2022-09-25T22:16:48.111Z,10.80
2022-09-25T22:19:20.503Z,14.33
2022-09-25T22:21:50.107Z,14.93
2022-09-25T22:24:18.385Z,20.05
2022-09-25T22:26:48.716Z,16.55
2022-09-25T22:29:17.294Z,17.48
2022-09-25T22:31:46.490Z,18.65
2022-09-25T22:34:18.383Z,14.77
2022-09-25T22:36:46.790Z,15.45
2022-09-25T22:39:16.756Z,17.35
2022-09-25T22:41:44.884Z,17.27
2022-09-25T22:44:12.917Z,19.80
2022-09-25T22:46:40.823Z,17.48
2022-09-25T22:49:09.911Z,17.70
2022-09-25T22:51:37.953Z,20.00
2022-09-25T22:54:06.037Z,15.98
2022-09-25T22:56:36.031Z,18.05
2022-09-25T22:59:07.436Z,20.10
2022-09-25T23:01:38.643Z,18.08
2022-09-25T23:04:08.180Z,19.65
2022-09-25T23:06:37.497Z,16.38
2022-09-25T23:09:08.138Z,17.92
2022-09-25T23:11:36.555Z,18.90
2022-09-25T23:14:06.894Z,18.23
2022-09-25T23:16:36.639Z,15.48
2022-09-25T23:19:05.468Z,19.55
2022-09-25T23:21:33.825Z,20.48
2022-09-25T23:24:05.761Z,17.10
2022-09-25T23:26:34.281Z,19.05
2022-09-25T23:29:02.663Z,16.55
2022-09-25T23:31:33.133Z,21.48
2022-09-25T23:34:01.724Z,25.83
2022-09-25T23:36:31.917Z,19.10
2022-09-25T23:39:01.868Z,19.77
2022-09-25T23:41:34.696Z,26.60
2022-09-25T23:44:04.803Z,20.35
2022-09-25T23:46:35.399Z,21.02
2022-09-25T23:49:04.344Z,23.42
2022-09-25T23:51:32.883Z,26.05
2022-09-25T23:54:02.763Z,23.02
2022-09-25T23:56:35.149Z,19.60
2022-09-25T23:59:04.601Z,21.05
